sensor_id;sensor_type;location;lat;lon;timestamp;temperature;humidity
9305;DHT22;4690;52.422;13.486;2023-09-19T00:13:27;18.00;99.90
9305;DHT22;4690;52.422;13.486;2023-09-19T00:15:54;18.00;99.90
9305;DHT22;4690;52.422;13.486;2023-09-19T00:18:21;18.00;99.90
9305;DHT22;4690;52.422;13.486;2023-09-19T00:20:47;17.90;99.90
9305;DHT22;4690;52.422;13.486;2023-09-19T00:23:14;17.90;99.90
9305;DHT22;4690;52.422;13.486;2023-09-19T00:25:40;17.90;99.90
9305;DHT22;4690;52.422;13.486;2023-09-19T00:28:07;17.90;99.90
9305;DHT22;4690;52.422;13.486;2023-09-19T00:30:35;17.90;99.90
9305;DHT22;4690;52.422;13.486;2023-09-19T00:33:04;17.80;99.90
9305;DHT22;4690;52.422;13.486;2023-09-19T00:35:31;17.80;99.90
9305;DHT22;4690;52.422;13.486;2023-09-19T00:37:58;17.80;99.90
9305;DHT22;4690;52.422;13.486;2023-09-19T00:40:24;17.80;99.90
9305;DHT22;4690;52.422;13.486;2023-09-19T00:42:51;17.70;99.90
9305;DHT22;4690;52.422;13.486;2023-09-19T00:45:17;17.70;99.90
9305;DHT22;4690;52.422;13.486;2023-09-19T00:47:50;17.70;99.90
9305;DHT22;4690;52.422;13.486;2023-09-19T00:50:19;17.60;99.90
9305;DHT22;4690;52.422;13.486;2023-09-19T00:52:48;17.60;99.90
9305;DHT22;4690;52.422;13.486;2023-09-19T00:55:16;17.60;99.90
9305;DHT22;4690;52.422;13.486;2023-09-19T00:57:45;17.60;99.90
9305;DHT22;4690;52.422;13.486;2023-09-19T01:00:12;17.60;99.90
9305;DHT22;4690;52.422;13.486;2023-09-19T01:02:42;17.60;99.90
9305;DHT22;4690;52.422;13.486;2023-09-19T01:05:09;17.50;99.90
9305;DHT22;4690;52.422;13.486;2023-09-19T01:07:36;17.50;99.90
9305;DHT22;4690;52.422;13.486;2023-09-19T01:10:06;17.50;99.90
9305;DHT22;4690;52.422;13.486;2023-09-19T01:21:17;17.40;99.90
9305;DHT22;4690;52.422;13.486;2023-09-19T01:24:34;17.40;99.90
9305;DHT22;4690;52.422;13.486;2023-09-19T01:27:25;17.40;99.90
9305;DHT22;4690;52.422;13.486;2023-09-19T01:30:18;17.40;99.90
9305;DHT22;4690;52.422;13.486;2023-09-19T01:32:51;17.40;99.90
9305;DHT22;4690;52.422;13.486;2023-09-19T01:35:18;17.40;99.90
9305;DHT22;4690;52.422;13.486;2023-09-19T01:37:44;17.40;99.90
9305;DHT22;4690;52.422;13.486;2023-09-19T01:40:12;17.30;99.90
9305;DHT22;4690;52.422;13.486;2023-09-19T01:51:44;17.30;99.90
9305;DHT22;4690;52.422;13.486;2023-09-19T01:54:24;17.30;99.90
9305;DHT22;4690;52.422;13.486;2023-09-19T01:57:12;17.30;99.90
9305;DHT22;4690;52.422;13.486;2023-09-19T01:59:52;17.40;99.90
9305;DHT22;4690;52.422;13.486;2023-09-19T02:02:23;17.40;99.90
9305;DHT22;4690;52.422;13.486;2023-09-19T02:04:51;17.40;99.90
9305;DHT22;4690;52.422;13.486;2023-09-19T02:07:17;17.40;99.90
9305;DHT22;4690;52.422;13.486;2023-09-19T02:09:43;17.40;99.90
9305;DHT22;4690;52.422;13.486;2023-09-19T02:12:09;17.40;99.90
9305;DHT22;4690;52.422;13.486;2023-09-19T02:14:35;17.40;99.90
9305;DHT22;4690;52.422;13.486;2023-09-19T02:17:03;17.30;99.90
9305;DHT22;4690;52.422;13.486;2023-09-19T02:19:38;17.30;99.90
9305;DHT22;4690;52.422;13.486;2023-09-19T02:22:04;17.30;99.90
9305;DHT22;4690;52.422;13.486;2023-09-19T02:24:38;17.20;99.90
9305;DHT22;4690;52.422;13.486;2023-09-19T02:27:04;17.20;99.90
9305;DHT22;4690;52.422;13.486;2023-09-19T02:29:31;17.20;99.90
9305;DHT22;4690;52.422;13.486;2023-09-19T02:31:59;17.20;99.90
9305;DHT22;4690;52.422;13.486;2023-09-19T02:34:28;17.20;99.90
9305;DHT22;4690;52.422;13.486;2023-09-19T02:36:54;17.10;99.90
9305;DHT22;4690;52.422;13.486;2023-09-19T02:39:21;17.10;99.90
9305;DHT22;4690;52.422;13.486;2023-09-19T02:41:49;17.00;99.90
9305;DHT22;4690;52.422;13.486;2023-09-19T02:44:15;17.10;99.90
9305;DHT22;4690;52.422;13.486;2023-09-19T02:46:40;17.00;99.90
9305;DHT22;4690;52.422;13.486;2023-09-19T02:49:07;17.00;99.90
9305;DHT22;4690;52.422;13.486;2023-09-19T02:51:33;17.00;99.90
9305;DHT22;4690;52.422;13.486;2023-09-19T02:54:00;17.00;99.90
9305;DHT22;4690;52.422;13.486;2023-09-19T02:56:26;16.90;99.90
9305;DHT22;4690;52.422;13.486;2023-09-19T02:58:52;16.90;99.90
9305;DHT22;4690;52.422;13.486;2023-09-19T03:01:18;16.90;99.90
9305;DHT22;4690;52.422;13.486;2023-09-19T03:03:44;16.90;99.90
9305;DHT22;4690;52.422;13.486;2023-09-19T03:06:11;16.90;99.90
9305;DHT22;4690;52.422;13.486;2023-09-19T03:08:38;16.90;99.90
9305;DHT22;4690;52.422;13.486;2023-09-19T03:11:09;16.80;99.90
9305;DHT22;4690;52.422;13.486;2023-09-19T03:13:36;16.80;99.90
9305;DHT22;4690;52.422;13.486;2023-09-19T03:16:04;16.80;99.90
9305;DHT22;4690;52.422;13.486;2023-09-19T03:18:36;16.80;99.90
9305;DHT22;4690;52.422;13.486;2023-09-19T03:21:02;16.80;99.90
9305;DHT22;4690;52.422;13.486;2023-09-19T03:23:29;16.80;99.90
9305;DHT22;4690;52.422;13.486;2023-09-19T03:25:55;16.80;99.90
9305;DHT22;4690;52.422;13.486;2023-09-19T03:28:22;16.80;99.90
9305;DHT22;4690;52.422;13.486;2023-09-19T03:31:02;16.80;99.90
9305;DHT22;4690;52.422;13.486;2023-09-19T03:33:30;16.80;99.90
9305;DHT22;4690;52.422;13.486;2023-09-19T03:35:58;16.90;99.90
9305;DHT22;4690;52.422;13.486;2023-09-19T03:38:25;16.90;99.90
9305;DHT22;4690;52.422;13.486;2023-09-19T03:40:51;16.90;99.90
9305;DHT22;4690;52.422;13.486;2023-09-19T03:43:17;16.90;99.90
9305;DHT22;4690;52.422;13.486;2023-09-19T03:45:43;16.90;99.90
9305;DHT22;4690;52.422;13.486;2023-09-19T03:48:13;17.00;99.90
9305;DHT22;4690;52.422;13.486;2023-09-19T03:50:39;17.00;99.90
9305;DHT22;4690;52.422;13.486;2023-09-19T03:53:05;17.00;99.90
9305;DHT22;4690;52.422;13.486;2023-09-19T03:55:32;17.00;99.90
9305;DHT22;4690;52.422;13.486;2023-09-19T03:58:04;17.00;99.90
9305;DHT22;4690;52.422;13.486;2023-09-19T04:00:31;17.00;99.90
9305;DHT22;4690;52.422;13.486;2023-09-19T04:02:57;17.10;99.90
9305;DHT22;4690;52.422;13.486;2023-09-19T04:05:24;17.10;99.90
9305;DHT22;4690;52.422;13.486;2023-09-19T04:07:49;17.10;99.90
9305;DHT22;4690;52.422;13.486;2023-09-19T04:10:16;17.10;99.90
9305;DHT22;4690;52.422;13.486;2023-09-19T04:12:54;17.20;99.90
9305;DHT22;4690;52.422;13.486;2023-09-19T04:15:20;17.20;99.90
9305;DHT22;4690;52.422;13.486;2023-09-19T04:17:50;17.20;99.90
9305;DHT22;4690;52.422;13.486;2023-09-19T04:20:17;17.20;99.90
9305;DHT22;4690;52.422;13.486;2023-09-19T04:22:45;17.20;99.90
9305;DHT22;4690;52.422;13.486;2023-09-19T04:25:12;17.20;99.90
9305;DHT22;4690;52.422;13.486;2023-09-19T04:27:38;17.10;99.90
9305;DHT22;4690;52.422;13.486;2023-09-19T04:30:05;17.10;99.90
9305;DHT22;4690;52.422;13.486;2023-09-19T04:32:35;17.00;99.90
9305;DHT22;4690;52.422;13.486;2023-09-19T04:35:04;17.00;99.90
9305;DHT22;4690;52.422;13.486;2023-09-19T04:37:31;16.90;99.90
9305;DHT22;4690;52.422;13.486;2023-09-19T04:39:58;17.00;99.90
9305;DHT22;4690;52.422;13.486;2023-09-19T04:42:23;16.90;99.90
9305;DHT22;4690;52.422;13.486;2023-09-19T04:44:50;16.80;99.90
9305;DHT22;4690;52.422;13.486;2023-09-19T04:47:18;16.80;99.90
9305;DHT22;4690;52.422;13.486;2023-09-19T04:49:44;16.80;99.90
9305;DHT22;4690;52.422;13.486;2023-09-19T04:52:09;16.80;99.90
9305;DHT22;4690;52.422;13.486;2023-09-19T04:54:35;16.80;99.90
9305;DHT22;4690;52.422;13.486;2023-09-19T04:57:01;16.70;99.90
9305;DHT22;4690;52.422;13.486;2023-09-19T04:59:27;16.70;99.90
9305;DHT22;4690;52.422;13.486;2023-09-19T05:01:54;16.70;99.90
9305;DHT22;4690;52.422;13.486;2023-09-19T05:04:19;16.70;99.90
9305;DHT22;4690;52.422;13.486;2023-09-19T05:06:45;16.70;99.90
9305;DHT22;4690;52.422;13.486;2023-09-19T05:09:11;16.70;99.90
9305;DHT22;4690;52.422;13.486;2023-09-19T05:11:36;16.70;99.90
9305;DHT22;4690;52.422;13.486;2023-09-19T05:14:04;16.70;99.90
9305;DHT22;4690;52.422;13.486;2023-09-19T05:16:30;16.70;99.90
9305;DHT22;4690;52.422;13.486;2023-09-19T05:18:59;16.60;99.90
9305;DHT22;4690;52.422;13.486;2023-09-19T05:21:26;16.60;99.90
9305;DHT22;4690;52.422;13.486;2023-09-19T05:23:54;16.60;99.90
9305;DHT22;4690;52.422;13.486;2023-09-19T05:26:21;16.60;99.90
9305;DHT22;4690;52.422;13.486;2023-09-19T05:28:47;16.60;99.90
9305;DHT22;4690;52.422;13.486;2023-09-19T05:31:15;16.60;99.90
9305;DHT22;4690;52.422;13.486;2023-09-19T05:33:42;16.50;99.90
9305;DHT22;4690;52.422;13.486;2023-09-19T05:36:08;16.60;99.90
9305;DHT22;4690;52.422;13.486;2023-09-19T05:38:36;16.60;99.90
9305;DHT22;4690;52.422;13.486;2023-09-19T05:41:02;16.60;99.90
9305;DHT22;4690;52.422;13.486;2023-09-19T05:43:28;16.60;99.90
9305;DHT22;4690;52.422;13.486;2023-09-19T05:45:53;16.50;99.90
9305;DHT22;4690;52.422;13.486;2023-09-19T05:48:21;16.50;99.90
9305;DHT22;4690;52.422;13.486;2023-09-19T05:50:47;16.50;99.90
9305;DHT22;4690;52.422;13.486;2023-09-19T05:53:14;16.50;99.90
9305;DHT22;4690;52.422;13.486;2023-09-19T05:55:40;16.50;99.90
9305;DHT22;4690;52.422;13.486;2023-09-19T05:58:07;16.50;99.90
9305;DHT22;4690;52.422;13.486;2023-09-19T06:00:34;16.40;99.90
9305;DHT22;4690;52.422;13.486;2023-09-19T06:03:00;16.50;99.90
9305;DHT22;4690;52.422;13.486;2023-09-19T06:05:26;16.50;99.90
9305;DHT22;4690;52.422;13.486;2023-09-19T06:07:53;16.40;99.90
9305;DHT22;4690;52.422;13.486;2023-09-19T06:10:20;16.50;99.90
9305;DHT22;4690;52.422;13.486;2023-09-19T06:12:46;16.50;99.90
9305;DHT22;4690;52.422;13.486;2023-09-19T06:15:13;16.60;99.90
9305;DHT22;4690;52.422;13.486;2023-09-19T06:17:55;16.50;99.90
9305;DHT22;4690;52.422;13.486;2023-09-19T06:20:22;16.60;99.90
9305;DHT22;4690;52.422;13.486;2023-09-19T06:22:49;16.60;99.90
9305;DHT22;4690;52.422;13.486;2023-09-19T06:25:16;16.70;99.90
9305;DHT22;4690;52.422;13.486;2023-09-19T06:27:46;16.70;99.90
9305;DHT22;4690;52.422;13.486;2023-09-19T06:30:13;16.80;99.90
9305;DHT22;4690;52.422;13.486;2023-09-19T06:32:40;16.90;99.90
9305;DHT22;4690;52.422;13.486;2023-09-19T06:35:12;16.90;99.90
9305;DHT22;4690;52.422;13.486;2023-09-19T06:37:40;16.90;99.90
9305;DHT22;4690;52.422;13.486;2023-09-19T06:40:08;16.90;99.90
9305;DHT22;4690;52.422;13.486;2023-09-19T06:42:51;16.90;99.90
9305;DHT22;4690;52.422;13.486;2023-09-19T06:45:18;17.10;99.90
9305;DHT22;4690;52.422;13.486;2023-09-19T06:47:53;17.10;99.90
9305;DHT22;4690;52.422;13.486;2023-09-19T06:50:23;17.20;99.90
9305;DHT22;4690;52.422;13.486;2023-09-19T06:52:53;17.30;99.90
9305;DHT22;4690;52.422;13.486;2023-09-19T06:55:21;17.40;99.90
9305;DHT22;4690;52.422;13.486;2023-09-19T06:57:50;17.40;99.90
9305;DHT22;4690;52.422;13.486;2023-09-19T07:00:16;17.40;99.90
9305;DHT22;4690;52.422;13.486;2023-09-19T07:03:00;17.50;99.90
9305;DHT22;4690;52.422;13.486;2023-09-19T07:05:27;17.60;99.90
9305;DHT22;4690;52.422;13.486;2023-09-19T07:07:53;17.60;99.90
9305;DHT22;4690;52.422;13.486;2023-09-19T07:10:27;17.70;99.90
9305;DHT22;4690;52.422;13.486;2023-09-19T07:13:11;17.90;99.90
9305;DHT22;4690;52.422;13.486;2023-09-19T07:15:38;18.20;99.90
9305;DHT22;4690;52.422;13.486;2023-09-19T07:18:07;18.30;99.90
9305;DHT22;4690;52.422;13.486;2023-09-19T07:20:36;18.50;99.90
9305;DHT22;4690;52.422;13.486;2023-09-19T07:23:02;18.80;99.90
9305;DHT22;4690;52.422;13.486;2023-09-19T07:25:28;18.90;99.90
9305;DHT22;4690;52.422;13.486;2023-09-19T07:27:56;18.90;99.90
9305;DHT22;4690;52.422;13.486;2023-09-19T07:30:25;19.00;99.90
9305;DHT22;4690;52.422;13.486;2023-09-19T07:32:52;18.90;99.90
9305;DHT22;4690;52.422;13.486;2023-09-19T07:35:18;18.80;99.90
9305;DHT22;4690;52.422;13.486;2023-09-19T07:37:48;18.60;99.90
9305;DHT22;4690;52.422;13.486;2023-09-19T07:40:18;18.60;99.90
9305;DHT22;4690;52.422;13.486;2023-09-19T07:42:45;18.60;99.90
9305;DHT22;4690;52.422;13.486;2023-09-19T07:45:12;18.70;99.90
9305;DHT22;4690;52.422;13.486;2023-09-19T07:47:46;19.00;99.90
9305;DHT22;4690;52.422;13.486;2023-09-19T07:50:17;19.10;99.90
9305;DHT22;4690;52.422;13.486;2023-09-19T07:52:46;19.30;99.90
9305;DHT22;4690;52.422;13.486;2023-09-19T07:55:12;19.40;99.90
9305;DHT22;4690;52.422;13.486;2023-09-19T07:57:42;19.20;99.90
9305;DHT22;4690;52.422;13.486;2023-09-19T08:00:09;19.20;99.90
9305;DHT22;4690;52.422;13.486;2023-09-19T08:02:40;19.10;99.90
9305;DHT22;4690;52.422;13.486;2023-09-19T08:05:08;19.20;99.90
9305;DHT22;4690;52.422;13.486;2023-09-19T08:07:39;19.30;99.90
9305;DHT22;4690;52.422;13.486;2023-09-19T08:10:07;19.30;99.90
9305;DHT22;4690;52.422;13.486;2023-09-19T08:12:42;19.30;99.90
9305;DHT22;4690;52.422;13.486;2023-09-19T08:15:17;19.20;99.90
9305;DHT22;4690;52.422;13.486;2023-09-19T08:17:47;18.90;99.90
9305;DHT22;4690;52.422;13.486;2023-09-19T08:20:15;19.00;99.90
9305;DHT22;4690;52.422;13.486;2023-09-19T08:22:52;19.20;99.90
9305;DHT22;4690;52.422;13.486;2023-09-19T08:25:22;19.40;99.90
9305;DHT22;4690;52.422;13.486;2023-09-19T08:27:50;19.60;99.90
9305;DHT22;4690;52.422;13.486;2023-09-19T08:30:18;19.40;99.90
9305;DHT22;4690;52.422;13.486;2023-09-19T08:32:49;19.20;99.90
9305;DHT22;4690;52.422;13.486;2023-09-19T08:35:15;19.00;99.90
9305;DHT22;4690;52.422;13.486;2023-09-19T08:37:44;18.80;99.90
9305;DHT22;4690;52.422;13.486;2023-09-19T08:40:13;18.70;99.90
9305;DHT22;4690;52.422;13.486;2023-09-19T08:42:55;18.70;99.90
9305;DHT22;4690;52.422;13.486;2023-09-19T08:45:26;18.80;99.90
9305;DHT22;4690;52.422;13.486;2023-09-19T08:50:39;18.70;99.90
9305;DHT22;4690;52.422;13.486;2023-09-19T08:53:19;18.90;99.90
9305;DHT22;4690;52.422;13.486;2023-09-19T08:55:53;19.20;99.90
9305;DHT22;4690;52.422;13.486;2023-09-19T08:58:21;19.30;99.90
9305;DHT22;4690;52.422;13.486;2023-09-19T09:00:55;19.20;99.90
9305;DHT22;4690;52.422;13.486;2023-09-19T09:03:22;19.40;99.90
9305;DHT22;4690;52.422;13.486;2023-09-19T09:05:50;19.40;99.90
9305;DHT22;4690;52.422;13.486;2023-09-19T09:08:18;19.30;99.90
9305;DHT22;4690;52.422;13.486;2023-09-19T09:10:48;19.20;99.90
9305;DHT22;4690;52.422;13.486;2023-09-19T09:13:15;19.10;99.90
9305;DHT22;4690;52.422;13.486;2023-09-19T09:15:42;19.20;99.90
9305;DHT22;4690;52.422;13.486;2023-09-19T09:18:10;19.50;99.90
9305;DHT22;4690;52.422;13.486;2023-09-19T09:20:36;19.60;99.90
9305;DHT22;4690;52.422;13.486;2023-09-19T09:23:02;19.50;99.90
9305;DHT22;4690;52.422;13.486;2023-09-19T09:28:33;19.90;99.90
9305;DHT22;4690;52.422;13.486;2023-09-19T09:31:01;19.80;99.90
9305;DHT22;4690;52.422;13.486;2023-09-19T09:33:38;19.90;99.90
9305;DHT22;4690;52.422;13.486;2023-09-19T09:36:05;20.00;99.90
9305;DHT22;4690;52.422;13.486;2023-09-19T09:38:45;19.90;99.90
9305;DHT22;4690;52.422;13.486;2023-09-19T09:41:15;20.00;99.90
9305;DHT22;4690;52.422;13.486;2023-09-19T09:43:53;20.00;99.90
9305;DHT22;4690;52.422;13.486;2023-09-19T09:46:24;20.00;99.90
9305;DHT22;4690;52.422;13.486;2023-09-19T09:49:22;20.00;99.90
9305;DHT22;4690;52.422;13.486;2023-09-19T09:52:05;20.10;99.90
9305;DHT22;4690;52.422;13.486;2023-09-19T09:54:34;20.20;99.90
9305;DHT22;4690;52.422;13.486;2023-09-19T09:57:08;20.20;99.90
9305;DHT22;4690;52.422;13.486;2023-09-19T09:59:54;20.20;99.90
9305;DHT22;4690;52.422;13.486;2023-09-19T10:02:46;20.10;99.90
9305;DHT22;4690;52.422;13.486;2023-09-19T10:05:16;20.10;99.90
9305;DHT22;4690;52.422;13.486;2023-09-19T10:07:44;20.10;99.90
9305;DHT22;4690;52.422;13.486;2023-09-19T10:10:33;20.20;99.90
9305;DHT22;4690;52.422;13.486;2023-09-19T10:13:10;20.40;99.90
9305;DHT22;4690;52.422;13.486;2023-09-19T10:15:44;20.20;99.90
9305;DHT22;4690;52.422;13.486;2023-09-19T10:18:25;20.20;99.90
9305;DHT22;4690;52.422;13.486;2023-09-19T10:20:53;20.00;99.90
9305;DHT22;4690;52.422;13.486;2023-09-19T10:23:21;20.20;99.90
9305;DHT22;4690;52.422;13.486;2023-09-19T10:25:49;20.10;99.90
9305;DHT22;4690;52.422;13.486;2023-09-19T10:28:17;20.40;99.90
9305;DHT22;4690;52.422;13.486;2023-09-19T10:30:48;20.30;99.90
9305;DHT22;4690;52.422;13.486;2023-09-19T10:33:22;20.30;99.90
9305;DHT22;4690;52.422;13.486;2023-09-19T10:35:53;20.30;99.90
9305;DHT22;4690;52.422;13.486;2023-09-19T10:38:24;20.50;99.90
9305;DHT22;4690;52.422;13.486;2023-09-19T10:40:53;20.70;99.90
9305;DHT22;4690;52.422;13.486;2023-09-19T10:43:21;20.70;99.90
9305;DHT22;4690;52.422;13.486;2023-09-19T10:46:00;20.80;99.90
9305;DHT22;4690;52.422;13.486;2023-09-19T10:48:31;20.80;99.90
9305;DHT22;4690;52.422;13.486;2023-09-19T10:56:49;21.20;99.90
9305;DHT22;4690;52.422;13.486;2023-09-19T10:59:19;20.90;99.90
9305;DHT22;4690;52.422;13.486;2023-09-19T11:04:32;20.70;99.90
9305;DHT22;4690;52.422;13.486;2023-09-19T11:07:11;20.70;99.90
9305;DHT22;4690;52.422;13.486;2023-09-19T11:09:52;20.60;99.90
9305;DHT22;4690;52.422;13.486;2023-09-19T11:15:07;20.80;99.90
9305;DHT22;4690;52.422;13.486;2023-09-19T11:17:43;20.80;99.90
9305;DHT22;4690;52.422;13.486;2023-09-19T11:20:19;20.80;99.90
9305;DHT22;4690;52.422;13.486;2023-09-19T11:30:45;20.50;99.90
9305;DHT22;4690;52.422;13.486;2023-09-19T11:33:23;20.60;99.90
9305;DHT22;4690;52.422;13.486;2023-09-19T11:36:04;20.50;99.90
9305;DHT22;4690;52.422;13.486;2023-09-19T11:41:38;20.20;99.90
9305;DHT22;4690;52.422;13.486;2023-09-19T11:46:32;20.50;99.90
9305;DHT22;4690;52.422;13.486;2023-09-19T11:49:06;20.70;99.90
9305;DHT22;4690;52.422;13.486;2023-09-19T11:51:40;20.60;99.90
9305;DHT22;4690;52.422;13.486;2023-09-19T11:54:11;20.30;99.90
9305;DHT22;4690;52.422;13.486;2023-09-19T11:56:48;20.20;99.90
9305;DHT22;4690;52.422;13.486;2023-09-19T12:01:53;20.50;99.90
9305;DHT22;4690;52.422;13.486;2023-09-19T12:04:43;20.70;99.90
9305;DHT22;4690;52.422;13.486;2023-09-19T12:07:15;20.60;99.90
9305;DHT22;4690;52.422;13.486;2023-09-19T12:10:04;20.60;99.90
9305;DHT22;4690;52.422;13.486;2023-09-19T12:12:31;20.60;99.90
9305;DHT22;4690;52.422;13.486;2023-09-19T12:14:58;20.50;99.90
9305;DHT22;4690;52.422;13.486;2023-09-19T12:17:38;20.50;99.90
9305;DHT22;4690;52.422;13.486;2023-09-19T12:20:07;20.60;99.90
9305;DHT22;4690;52.422;13.486;2023-09-19T12:22:46;20.60;99.90
9305;DHT22;4690;52.422;13.486;2023-09-19T12:25:14;20.60;99.90
9305;DHT22;4690;52.422;13.486;2023-09-19T12:27:49;20.70;99.90
9305;DHT22;4690;52.422;13.486;2023-09-19T12:30:19;20.80;99.90
9305;DHT22;4690;52.422;13.486;2023-09-19T12:32:46;20.80;99.90
9305;DHT22;4690;52.422;13.486;2023-09-19T12:35:31;20.70;99.90
9305;DHT22;4690;52.422;13.486;2023-09-19T12:38:01;20.80;99.90
9305;DHT22;4690;52.422;13.486;2023-09-19T12:40:28;20.80;99.90
9305;DHT22;4690;52.422;13.486;2023-09-19T12:42:59;20.90;99.90
9305;DHT22;4690;52.422;13.486;2023-09-19T12:45:29;20.80;99.90
9305;DHT22;4690;52.422;13.486;2023-09-19T12:48:22;20.90;99.90
9305;DHT22;4690;52.422;13.486;2023-09-19T12:51:00;20.90;99.90
9305;DHT22;4690;52.422;13.486;2023-09-19T12:53:29;20.90;99.90
9305;DHT22;4690;52.422;13.486;2023-09-19T12:55:59;20.90;99.90
9305;DHT22;4690;52.422;13.486;2023-09-19T12:58:25;20.80;99.90
9305;DHT22;4690;52.422;13.486;2023-09-19T13:00:52;20.70;99.90
9305;DHT22;4690;52.422;13.486;2023-09-19T13:05:58;20.90;99.90
9305;DHT22;4690;52.422;13.486;2023-09-19T13:08:32;20.90;99.90
9305;DHT22;4690;52.422;13.486;2023-09-19T13:13:47;20.70;99.90
9305;DHT22;4690;52.422;13.486;2023-09-19T13:16:16;20.70;99.90
9305;DHT22;4690;52.422;13.486;2023-09-19T13:18:53;20.70;99.90
9305;DHT22;4690;52.422;13.486;2023-09-19T13:21:34;20.60;99.90
9305;DHT22;4690;52.422;13.486;2023-09-19T13:24:23;20.60;99.90
9305;DHT22;4690;52.422;13.486;2023-09-19T13:26:53;20.60;99.90
9305;DHT22;4690;52.422;13.486;2023-09-19T13:29:19;20.50;99.90
9305;DHT22;4690;52.422;13.486;2023-09-19T13:31:52;20.60;99.90
9305;DHT22;4690;52.422;13.486;2023-09-19T13:34:19;20.70;99.90
9305;DHT22;4690;52.422;13.486;2023-09-19T13:36:46;20.80;99.90
9305;DHT22;4690;52.422;13.486;2023-09-19T13:39:14;20.90;99.90
9305;DHT22;4690;52.422;13.486;2023-09-19T13:41:42;20.80;99.90
9305;DHT22;4690;52.422;13.486;2023-09-19T13:44:09;20.90;99.90
9305;DHT22;4690;52.422;13.486;2023-09-19T13:46:38;20.80;99.90
9305;DHT22;4690;52.422;13.486;2023-09-19T13:49:04;20.70;99.90
9305;DHT22;4690;52.422;13.486;2023-09-19T13:51:31;20.60;99.90
9305;DHT22;4690;52.422;13.486;2023-09-19T13:53:57;20.70;99.90
9305;DHT22;4690;52.422;13.486;2023-09-19T13:56:23;20.80;99.90
9305;DHT22;4690;52.422;13.486;2023-09-19T13:58:50;20.80;99.90
9305;DHT22;4690;52.422;13.486;2023-09-19T14:01:15;20.80;99.90
9305;DHT22;4690;52.422;13.486;2023-09-19T14:03:42;20.90;99.90
9305;DHT22;4690;52.422;13.486;2023-09-19T14:06:12;20.90;99.90
9305;DHT22;4690;52.422;13.486;2023-09-19T14:08:38;20.80;99.90
9305;DHT22;4690;52.422;13.486;2023-09-19T14:11:10;20.70;99.90
9305;DHT22;4690;52.422;13.486;2023-09-19T14:13:36;20.80;99.90
9305;DHT22;4690;52.422;13.486;2023-09-19T14:16:06;20.80;99.90
9305;DHT22;4690;52.422;13.486;2023-09-19T14:18:34;20.70;99.90
9305;DHT22;4690;52.422;13.486;2023-09-19T14:21:06;20.70;99.90
9305;DHT22;4690;52.422;13.486;2023-09-19T14:23:35;20.70;99.90
9305;DHT22;4690;52.422;13.486;2023-09-19T14:26:01;20.70;99.90
9305;DHT22;4690;52.422;13.486;2023-09-19T14:28:27;20.70;99.90
9305;DHT22;4690;52.422;13.486;2023-09-19T14:30:55;20.60;99.90
9305;DHT22;4690;52.422;13.486;2023-09-19T14:33:21;20.50;99.90
9305;DHT22;4690;52.422;13.486;2023-09-19T14:35:46;20.50;99.90
9305;DHT22;4690;52.422;13.486;2023-09-19T14:38:12;20.50;99.90
9305;DHT22;4690;52.422;13.486;2023-09-19T14:40:38;20.50;99.90
9305;DHT22;4690;52.422;13.486;2023-09-19T14:43:05;20.50;99.90
9305;DHT22;4690;52.422;13.486;2023-09-19T14:45:30;20.60;99.90
9305;DHT22;4690;52.422;13.486;2023-09-19T14:47:56;20.60;99.90
9305;DHT22;4690;52.422;13.486;2023-09-19T14:50:22;20.60;99.90
9305;DHT22;4690;52.422;13.486;2023-09-19T14:52:49;20.60;99.90
9305;DHT22;4690;52.422;13.486;2023-09-19T14:55:17;20.60;99.90
9305;DHT22;4690;52.422;13.486;2023-09-19T14:57:49;20.60;99.90
9305;DHT22;4690;52.422;13.486;2023-09-19T15:00:17;20.50;99.90
9305;DHT22;4690;52.422;13.486;2023-09-19T15:02:45;20.50;99.90
9305;DHT22;4690;52.422;13.486;2023-09-19T15:05:13;20.50;99.90
9305;DHT22;4690;52.422;13.486;2023-09-19T15:07:41;20.50;99.90
9305;DHT22;4690;52.422;13.486;2023-09-19T15:10:07;20.50;99.90
9305;DHT22;4690;52.422;13.486;2023-09-19T15:12:37;20.50;99.90
9305;DHT22;4690;52.422;13.486;2023-09-19T15:15:04;20.50;99.90
9305;DHT22;4690;52.422;13.486;2023-09-19T15:17:35;20.40;99.90
9305;DHT22;4690;52.422;13.486;2023-09-19T15:20:02;20.40;99.90
9305;DHT22;4690;52.422;13.486;2023-09-19T15:22:32;20.40;99.90
9305;DHT22;4690;52.422;13.486;2023-09-19T15:25:00;20.30;99.90
9305;DHT22;4690;52.422;13.486;2023-09-19T15:27:28;20.30;99.90
9305;DHT22;4690;52.422;13.486;2023-09-19T15:29:56;20.40;99.90
9305;DHT22;4690;52.422;13.486;2023-09-19T15:32:24;20.30;99.90
9305;DHT22;4690;52.422;13.486;2023-09-19T15:34:50;20.30;99.90
9305;DHT22;4690;52.422;13.486;2023-09-19T15:37:15;20.30;99.90
9305;DHT22;4690;52.422;13.486;2023-09-19T15:39:41;20.30;99.90
9305;DHT22;4690;52.422;13.486;2023-09-19T15:42:10;20.30;99.90
9305;DHT22;4690;52.422;13.486;2023-09-19T15:44:36;20.30;99.90
9305;DHT22;4690;52.422;13.486;2023-09-19T15:47:03;20.30;99.90
9305;DHT22;4690;52.422;13.486;2023-09-19T15:49:30;20.30;99.90
9305;DHT22;4690;52.422;13.486;2023-09-19T15:51:56;20.40;99.90
9305;DHT22;4690;52.422;13.486;2023-09-19T15:54:22;20.40;99.90
9305;DHT22;4690;52.422;13.486;2023-09-19T15:56:50;20.40;99.90
9305;DHT22;4690;52.422;13.486;2023-09-19T15:59:17;20.40;99.90
9305;DHT22;4690;52.422;13.486;2023-09-19T16:01:43;20.40;99.90
9305;DHT22;4690;52.422;13.486;2023-09-19T16:04:10;20.40;99.90
9305;DHT22;4690;52.422;13.486;2023-09-19T16:06:37;20.40;99.90
9305;DHT22;4690;52.422;13.486;2023-09-19T16:09:04;20.30;99.90
9305;DHT22;4690;52.422;13.486;2023-09-19T16:11:35;20.30;99.90
9305;DHT22;4690;52.422;13.486;2023-09-19T16:14:01;20.20;99.90
9305;DHT22;4690;52.422;13.486;2023-09-19T16:16:27;20.20;99.90
9305;DHT22;4690;52.422;13.486;2023-09-19T16:18:57;20.20;99.90
9305;DHT22;4690;52.422;13.486;2023-09-19T16:21:27;20.20;99.90
9305;DHT22;4690;52.422;13.486;2023-09-19T16:23:55;20.20;99.90
9305;DHT22;4690;52.422;13.486;2023-09-19T16:26:22;20.10;99.90
9305;DHT22;4690;52.422;13.486;2023-09-19T16:28:51;20.00;99.90
9305;DHT22;4690;52.422;13.486;2023-09-19T16:31:19;20.00;99.90
9305;DHT22;4690;52.422;13.486;2023-09-19T16:33:46;20.00;99.90
9305;DHT22;4690;52.422;13.486;2023-09-19T16:36:15;20.00;99.90
9305;DHT22;4690;52.422;13.486;2023-09-19T16:38:43;19.90;99.90
9305;DHT22;4690;52.422;13.486;2023-09-19T16:41:11;19.90;99.90
9305;DHT22;4690;52.422;13.486;2023-09-19T16:43:38;19.80;99.90
9305;DHT22;4690;52.422;13.486;2023-09-19T16:46:06;19.80;99.90
9305;DHT22;4690;52.422;13.486;2023-09-19T16:48:37;19.70;99.90
9305;DHT22;4690;52.422;13.486;2023-09-19T16:51:11;19.70;99.90
9305;DHT22;4690;52.422;13.486;2023-09-19T16:53:39;19.70;99.90
9305;DHT22;4690;52.422;13.486;2023-09-19T16:56:11;19.50;99.90
9305;DHT22;4690;52.422;13.486;2023-09-19T16:58:41;19.50;99.90
9305;DHT22;4690;52.422;13.486;2023-09-19T17:01:09;19.40;99.90
9305;DHT22;4690;52.422;13.486;2023-09-19T17:03:36;19.30;99.90
9305;DHT22;4690;52.422;13.486;2023-09-19T17:06:02;19.30;99.90
9305;DHT22;4690;52.422;13.486;2023-09-19T17:08:30;19.20;99.90